createdAt,value
2019-05-09T04:55:29.250Z,97.80
2019-05-09T04:58:00.147Z,96.20
2019-05-09T05:00:48.075Z,95.60
2019-05-09T05:03:18.339Z,94.30
2019-05-09T05:05:48.273Z,93.30
2019-05-09T05:08:18.181Z,92.70
2019-05-09T05:10:47.800Z,91.90
2019-05-09T05:13:26.458Z,93.00
2019-05-09T05:15:59.466Z,93.40
2019-05-09T05:18:28.606Z,94.30
2019-05-09T05:20:58.327Z,94.30
2019-05-09T05:23:33.838Z,94.00
2019-05-09T05:26:02.831Z,93.80
2019-05-09T05:28:31.902Z,93.30
2019-05-09T05:31:01.022Z,93.10
2019-05-09T05:33:53.347Z,92.60
2019-05-09T05:36:20.085Z,91.80
2019-05-09T05:38:49.194Z,92.40
2019-05-09T05:41:18.428Z,92.20
2019-05-09T05:43:47.995Z,92.30
2019-05-09T05:46:39.349Z,91.20
2019-05-09T05:49:08.395Z,91.00
2019-05-09T05:51:49.760Z,89.10
2019-05-09T05:54:22.241Z,86.20
2019-05-09T05:56:51.371Z,82.90
2019-05-09T05:59:20.515Z,79.50
2019-05-09T06:01:50.003Z,77.60
2019-05-09T06:04:19.089Z,74.20
2019-05-09T06:06:48.348Z,71.10
2019-05-09T06:09:19.054Z,65.70
2019-05-09T06:11:48.678Z,63.60
2019-05-09T06:14:18.641Z,61.50
2019-05-09T06:16:48.643Z,58.00
2019-05-09T06:19:18.280Z,58.50
2019-05-09T06:21:48.570Z,58.40
2019-05-09T06:24:18.233Z,56.90
2019-05-09T06:26:47.836Z,55.10
2019-05-09T06:29:17.876Z,54.40
2019-05-09T06:32:07.837Z,53.30
2019-05-09T06:34:41.838Z,54.20
2019-05-09T06:37:08.935Z,53.20
2019-05-09T06:39:38.565Z,51.30
2019-05-09T06:42:08.933Z,51.80
2019-05-09T06:45:07.864Z,51.10
2019-05-09T06:47:39.687Z,49.60
2019-05-09T06:50:10.812Z,47.90
2019-05-09T06:52:47.842Z,47.00
2019-05-09T06:55:17.353Z,46.60
2019-05-09T06:57:49.865Z,45.60
2019-05-09T07:00:34.306Z,44.80
2019-05-09T07:03:08.391Z,45.50
2019-05-09T07:05:57.981Z,45.50
2019-05-09T07:08:35.086Z,44.60
2019-05-09T07:11:04.210Z,45.90
2019-05-09T07:13:33.338Z,45.50
2019-05-09T07:16:02.533Z,45.30
2019-05-09T07:18:31.604Z,44.30
2019-05-09T07:21:00.669Z,45.30
2019-05-09T07:23:29.783Z,46.40
2019-05-09T07:26:24.327Z,47.50
2019-05-09T07:28:53.472Z,49.20
2019-05-09T07:31:32.660Z,51.40
2019-05-09T07:34:05.485Z,52.80
2019-05-09T07:36:34.637Z,53.80
2019-05-09T07:39:08.669Z,54.30
2019-05-09T07:41:38.388Z,53.50
2019-05-09T07:44:07.820Z,51.70
2019-05-09T07:46:52.838Z,52.30
2019-05-09T07:49:21.874Z,52.80
2019-05-09T07:51:51.023Z,52.80
2019-05-09T07:54:25.541Z,51.60
2019-05-09T07:56:52.142Z,50.10
2019-05-09T07:59:21.216Z,50.20
2019-05-09T08:01:50.349Z,50.30
2019-05-09T08:04:19.514Z,51.50
2019-05-09T08:06:48.779Z,51.30
2019-05-09T08:09:18.783Z,52.00
2019-05-09T08:11:48.431Z,52.30
2019-05-09T08:14:17.903Z,52.70
2019-05-09T08:16:47.659Z,53.80
2019-05-09T08:19:18.126Z,55.20
2019-05-09T08:21:48.003Z,57.30
2019-05-09T08:24:18.277Z,58.70
2019-05-09T08:26:47.894Z,58.90
2019-05-09T08:29:17.779Z,60.30
2019-05-09T08:31:48.585Z,59.70
2019-05-09T08:34:18.668Z,59.90
2019-05-09T08:36:48.000Z,61.40
2019-05-09T08:39:20.170Z,62.70
2019-05-09T08:41:48.606Z,63.90
2019-05-09T08:44:18.647Z,65.30
2019-05-09T08:46:48.215Z,66.20
2019-05-09T08:49:19.235Z,67.00
2019-05-09T08:52:08.203Z,68.00
2019-05-09T08:54:41.972Z,68.80
2019-05-09T08:57:11.063Z,69.00
2019-05-09T08:59:40.126Z,69.50
2019-05-09T09:02:15.432Z,68.90
2019-05-09T09:04:41.223Z,69.10
2019-05-09T09:07:10.321Z,70.00
2019-05-09T09:09:39.362Z,69.70
2019-05-09T09:12:25.221Z,70.10
2019-05-09T09:14:39.351Z,71.00
2019-05-09T09:17:08.479Z,71.40
2019-05-09T09:19:38.573Z,72.10
2019-05-09T09:22:08.894Z,72.10
2019-05-09T09:24:38.327Z,72.70
2019-05-09T09:27:07.837Z,73.20
2019-05-09T09:29:38.000Z,73.90
2019-05-09T09:32:08.264Z,74.60
2019-05-09T09:34:38.066Z,75.00
2019-05-09T09:37:11.186Z,75.50
2019-05-09T09:39:44.458Z,75.50
2019-05-09T09:42:09.311Z,76.20
2019-05-09T09:44:39.328Z,76.40
2019-05-09T09:47:08.727Z,75.20
2019-05-09T09:49:38.450Z,74.40
2019-05-09T09:52:08.689Z,74.20
2019-05-09T09:54:38.687Z,74.90
2019-05-09T09:57:09.604Z,74.40
2019-05-09T09:59:58.503Z,74.50
2019-05-09T10:02:33.747Z,74.20
2019-05-09T10:05:03.151Z,74.70
2019-05-09T10:07:32.190Z,75.50
2019-05-09T10:10:01.303Z,76.10
2019-05-09T10:12:30.407Z,75.90
2019-05-09T10:15:09.332Z,76.40
2019-05-09T10:17:58.117Z,77.20
2019-05-09T10:20:30.680Z,78.20
2019-05-09T10:23:10.987Z,78.20
2019-05-09T10:25:30.792Z,79.30
2019-05-09T10:27:59.857Z,79.10
2019-05-09T10:30:33.754Z,80.40
2019-05-09T10:33:02.863Z,81.20
2019-05-09T10:35:32.037Z,81.30
2019-05-09T10:38:01.131Z,81.00
2019-05-09T10:40:30.654Z,81.50
2019-05-09T10:43:38.650Z,81.80
2019-05-09T10:46:22.579Z,81.60
2019-05-09T10:48:59.456Z,82.60
2019-05-09T10:51:28.621Z,82.10
2019-05-09T10:53:58.788Z,82.60
2019-05-09T10:56:28.302Z,82.80
2019-05-09T10:58:58.500Z,82.70
2019-05-09T11:01:29.468Z,82.90
2019-05-09T11:03:59.185Z,82.00
2019-05-09T11:06:29.019Z,82.90
2019-05-09T11:08:58.755Z,84.90
2019-05-09T11:11:28.995Z,85.20
2019-05-09T11:13:58.952Z,85.20
2019-05-09T11:16:41.765Z,84.50
2019-05-09T11:18:59.136Z,84.90
2019-05-09T11:21:28.870Z,83.90
2019-05-09T11:23:58.639Z,84.50
2019-05-09T11:26:28.761Z,85.20
2019-05-09T11:28:58.715Z,85.90
2019-05-09T11:31:29.428Z,86.40
2019-05-09T11:33:59.444Z,86.80
2019-05-09T11:36:28.504Z,88.10
2019-05-09T11:41:02.048Z,88.40
2019-05-09T11:41:29.601Z,87.80
2019-05-09T11:43:59.704Z,88.50
2019-05-09T11:46:29.099Z,88.90
2019-05-09T11:48:58.585Z,88.10
2019-05-09T11:51:29.400Z,88.20
2019-05-09T11:53:58.826Z,88.20
2019-05-09T11:56:27.964Z,87.70
2019-05-09T11:58:57.936Z,86.70
2019-05-09T12:01:29.245Z,87.50
2019-05-09T12:03:58.142Z,88.20
2019-05-09T12:06:28.919Z,88.70
2019-05-09T12:08:58.768Z,90.00
2019-05-09T12:11:28.306Z,90.00
2019-05-09T12:13:58.219Z,90.40
2019-05-09T12:16:28.250Z,90.80
2019-05-09T12:18:58.494Z,90.90
2019-05-09T12:21:28.492Z,91.50
2019-05-09T12:23:58.485Z,91.60
2019-05-09T12:26:29.099Z,91.90
2019-05-09T12:28:58.589Z,92.20
2019-05-09T12:31:28.797Z,92.20
2019-05-09T12:33:59.398Z,92.30
2019-05-09T12:36:28.917Z,92.10
2019-05-09T12:38:59.065Z,92.20
2019-05-09T12:41:31.440Z,92.40
2019-05-09T12:43:59.588Z,92.70
2019-05-09T12:46:28.651Z,92.90
2019-05-09T12:48:59.139Z,93.00
2019-05-09T12:51:28.600Z,93.70
2019-05-09T12:53:58.120Z,93.90
2019-05-09T12:56:28.547Z,94.00
2019-05-09T12:58:58.154Z,93.90
2019-05-09T13:01:27.286Z,93.70
2019-05-09T13:03:58.344Z,93.70
2019-05-09T13:06:29.237Z,94.10
2019-05-09T13:08:58.791Z,94.00
2019-05-09T13:11:28.197Z,94.00
2019-05-09T13:13:57.420Z,93.90
2019-05-09T13:16:49.526Z,94.20
2019-05-09T13:19:18.481Z,94.00
2019-05-09T13:21:47.545Z,93.80
2019-05-09T13:24:19.518Z,93.90
2019-05-09T13:26:50.226Z,94.30
2019-05-09T13:29:19.314Z,94.50
2019-05-09T13:31:48.458Z,94.60
2019-05-09T13:34:18.792Z,94.60
2019-05-09T13:36:48.944Z,93.80
2019-05-09T13:39:18.359Z,93.60
2019-05-09T13:41:49.798Z,94.10
2019-05-09T14:33:44.804Z,93.10
2019-05-09T14:36:13.945Z,92.90
2019-05-09T14:38:42.905Z,93.00
2019-05-09T14:41:12.163Z,92.90
2019-05-09T14:43:42.202Z,93.50
2019-05-09T14:46:11.428Z,93.80
2019-05-09T14:48:40.494Z,93.40
2019-05-09T14:51:09.652Z,92.90
2019-05-09T14:53:39.093Z,92.60
2019-05-09T14:56:08.830Z,92.50
2019-05-09T14:58:38.916Z,92.50
2019-05-09T15:01:08.615Z,92.60
2019-05-09T15:03:38.958Z,92.70
2019-05-09T15:06:08.279Z,93.00
2019-05-09T15:08:38.185Z,93.40
2019-05-09T15:11:09.823Z,92.00
2019-05-09T15:13:38.318Z,91.00
2019-05-09T15:16:08.846Z,90.60
2019-05-09T15:18:38.661Z,90.20
2019-05-09T15:21:08.025Z,90.30
2019-05-09T15:23:39.188Z,90.10
2019-05-09T15:26:08.000Z,90.50
2019-05-09T15:28:38.603Z,91.00
2019-05-09T15:31:08.855Z,91.50
2019-05-09T15:33:38.190Z,92.00
2019-05-09T15:36:09.146Z,92.40
2019-05-09T15:38:38.127Z,92.80
2019-05-09T15:41:12.094Z,93.10
2019-05-09T15:43:38.244Z,93.20
2019-05-09T15:46:13.909Z,93.00
2019-05-09T15:48:43.039Z,93.00
2019-05-09T15:51:12.110Z,93.00
2019-05-09T15:53:41.206Z,92.80
2019-05-09T15:56:10.298Z,93.10
2019-05-09T15:58:39.389Z,93.10
2019-05-09T16:01:08.555Z,92.70
2019-05-09T16:03:38.289Z,92.50
2019-05-09T16:06:09.033Z,92.50
2019-05-09T16:08:39.307Z,92.50
2019-05-09T16:11:08.768Z,92.60
2019-05-09T16:13:37.974Z,92.20
2019-05-09T16:16:08.951Z,92.00
2019-05-09T16:18:37.855Z,91.20
2019-05-09T16:21:08.379Z,90.60
2019-05-09T16:23:38.056Z,91.00
2019-05-09T16:26:07.965Z,91.20
2019-05-09T16:28:37.948Z,91.30
2019-05-09T16:31:07.163Z,91.40
2019-05-09T16:33:36.229Z,91.50
2019-05-09T16:36:08.343Z,91.50
2019-05-09T16:38:45.772Z,91.70
2019-05-09T16:41:11.074Z,92.10
2019-05-09T16:43:40.215Z,91.90
2019-05-09T16:46:09.368Z,92.10
2019-05-09T16:48:38.474Z,92.00
2019-05-09T16:51:07.979Z,91.90
2019-05-09T16:53:37.270Z,92.00
2019-05-09T16:56:08.157Z,92.30
2019-05-09T16:58:37.907Z,92.50
2019-05-09T17:01:08.316Z,92.50
2019-05-09T17:03:37.459Z,92.90
2019-05-09T17:06:07.640Z,93.30
2019-05-09T17:08:38.562Z,93.50
2019-05-09T17:11:07.796Z,94.10
2019-05-09T17:13:36.887Z,96.90
2019-05-09T17:16:07.531Z,99.90
2019-05-09T17:18:38.200Z,99.90
2019-05-09T17:21:28.263Z,99.90
2019-05-09T17:23:58.352Z,99.90
2019-05-09T17:26:28.344Z,99.90
2019-05-09T17:28:58.893Z,99.90
2019-05-09T17:31:28.097Z,99.90
2019-05-09T17:33:57.904Z,99.90
2019-05-09T17:36:28.583Z,99.90
2019-05-09T17:38:57.965Z,99.90
2019-05-09T17:41:28.405Z,99.90
2019-05-09T17:43:58.242Z,99.90
2019-05-09T17:46:27.701Z,99.90
2019-05-09T17:51:34.058Z,99.90
2019-05-09T17:53:58.492Z,99.90
2019-05-09T17:56:27.550Z,99.90
2019-05-09T17:58:58.016Z,99.90
2019-05-09T18:01:27.724Z,99.90
2019-05-09T18:03:59.069Z,99.90
2019-05-09T18:06:28.289Z,99.90
2019-05-09T18:08:57.699Z,99.90
2019-05-09T18:11:26.957Z,99.90
2019-05-09T18:13:56.027Z,99.90
2019-05-09T18:16:28.274Z,99.90
2019-05-09T18:18:58.706Z,99.90
2019-05-09T18:21:28.285Z,99.90
2019-05-09T18:23:58.637Z,99.90
2019-05-09T18:26:27.939Z,99.90
2019-05-09T18:34:21.664Z,99.90
2019-05-09T18:36:50.713Z,99.90
2019-05-09T18:39:22.626Z,99.90
2019-05-09T18:41:51.748Z,99.90
2019-05-09T18:44:20.794Z,99.90
2019-05-09T18:46:49.895Z,99.90
2019-05-09T18:49:19.039Z,99.90
2019-05-09T18:52:01.633Z,99.90
2019-05-09T18:54:20.257Z,99.90
2019-05-09T18:56:49.385Z,99.90
2019-05-09T18:59:18.418Z,99.90
2019-05-09T19:01:47.518Z,99.90
2019-05-09T19:04:16.494Z,99.90
2019-05-09T19:06:45.579Z,99.90
2019-05-09T19:09:14.663Z,99.90
2019-05-09T19:11:44.031Z,99.90
2019-05-09T19:14:14.735Z,99.90
2019-05-09T19:17:01.469Z,99.90
2019-05-09T19:19:37.966Z,99.90
2019-05-09T19:22:21.572Z,99.90
2019-05-09T19:24:38.002Z,99.90
2019-05-09T19:27:07.101Z,99.90
2019-05-09T19:29:36.245Z,99.90
2019-05-09T19:32:05.431Z,99.90
2019-05-09T19:34:34.531Z,99.90
2019-05-09T19:37:03.694Z,99.90
2019-05-09T19:39:32.772Z,99.90
2019-05-09T19:42:01.884Z,99.90
2019-05-09T19:44:30.992Z,99.90
2019-05-09T19:47:01.731Z,99.90
2019-05-09T19:49:30.886Z,99.90
2019-05-09T19:51:59.994Z,99.90
2019-05-09T19:54:29.165Z,99.90
2019-05-09T19:56:58.201Z,99.90
2019-05-09T20:17:15.222Z,99.90
2019-05-09T20:19:44.290Z,99.90
2019-05-09T20:22:13.474Z,99.90
2019-05-09T20:24:42.483Z,99.90
2019-05-09T20:27:11.531Z,99.90
2019-05-09T20:29:40.632Z,99.90
2019-05-09T20:32:09.844Z,99.90
2019-05-09T20:34:39.033Z,99.90
2019-05-09T20:37:08.159Z,99.90
2019-05-09T20:39:37.461Z,99.90
2019-05-09T20:42:31.541Z,99.90
2019-05-09T20:45:00.858Z,99.90
2019-05-09T20:47:30.111Z,99.90
2019-05-09T20:49:59.400Z,99.90
2019-05-09T20:52:28.675Z,99.90
2019-05-09T20:54:57.940Z,99.90
2019-05-09T20:57:27.357Z,99.90
2019-05-09T20:59:56.612Z,99.90
2019-05-09T21:02:25.875Z,99.90
2019-05-09T21:05:19.939Z,99.90
2019-05-09T21:08:17.107Z,99.90
2019-05-09T21:10:46.370Z,99.90
2019-05-09T21:13:15.645Z,99.90
2019-05-09T21:15:44.939Z,99.90
2019-05-09T21:18:14.213Z,99.90
2019-05-09T21:20:43.507Z,99.90
2019-05-09T21:23:24.370Z,99.90
2019-05-09T21:25:43.815Z,99.90
2019-05-09T21:28:13.111Z,99.90
2019-05-09T21:30:42.315Z,99.90
2019-05-09T21:33:11.623Z,99.90
